Time;durP1;ratioP1;P1;durP2;ratioP2;P2;SDS_P1;SDS_P2;PMS_P1;PMS_P2;Temp;Humidity;BMP_temperature;BMP_pressure;BME280_temperature;BME280_humidity;BME280_pressure;Samples;Min_cycle;Max_cycle;Signal;HPM_P1;HPM_P2
2023/10/01 00:00:25;;;;;;;4.28;1.60;;;;;;;15.69;100.00;100597.69;5009545;28;20034;-45
2023/10/01 00:02:53;;;;;;;4.35;1.13;;;;;;;15.68;100.00;100602.47;5010538;28;20050;-45
2023/10/01 00:05:24;;;;;;;7.78;1.67;;;;;;;15.69;100.00;100594.88;5011721;28;20042;-46
2023/10/01 00:07:53;;;;;;;3.78;1.05;;;;;;;15.69;100.00;100592.09;5012433;28;20131;-45
2023/10/01 00:10:22;;;;;;;3.80;1.20;;;;;;;15.70;100.00;100600.06;5011942;28;20046;-45
2023/10/01 00:12:52;;;;;;;4.15;1.38;;;;;;;15.71;100.00;100607.28;5011886;28;20711;-46
2023/10/01 00:15:21;;;;;;;2.90;1.10;;;;;;;15.72;100.00;100608.09;5008552;28;20041;-45
2023/10/01 00:17:48;;;;;;;6.22;3.13;;;;;;;15.73;100.00;100615.25;5008318;28;20459;-46
2023/10/01 00:20:27;;;;;;;2.50;1.17;;;;;;;15.72;100.00;100617.28;5010451;28;20504;-45
2023/10/01 00:22:59;;;;;;;5.75;1.90;;;;;;;15.71;100.00;100601.69;5012007;28;20050;-46
2023/10/01 00:25:27;;;;;;;4.83;1.60;;;;;;;15.72;100.00;100605.28;5012281;28;20123;-45
2023/10/01 00:27:58;;;;;;;1.55;0.93;;;;;;;15.70;100.00;100604.88;5010634;28;20302;-49
2023/10/01 00:30:31;;;;;;;3.78;1.27;;;;;;;15.70;100.00;100596.50;5011717;28;20496;-45
2023/10/01 00:33:05;;;;;;;2.42;1.10;;;;;;;15.71;100.00;100589.72;5010913;28;20205;-45
2023/10/01 00:35:32;;;;;;;3.40;1.20;;;;;;;15.71;100.00;100589.72;5011430;28;20403;-45
2023/10/01 00:37:59;;;;;;;2.67;1.00;;;;;;;15.70;100.00;100588.91;5011390;28;20046;-46
2023/10/01 00:40:28;;;;;;;5.18;1.33;;;;;;;15.67;100.00;100589.69;5011412;28;20060;-46
2023/10/01 00:42:57;;;;;;;3.92;1.70;;;;;;;15.67;100.00;100600.06;5012281;28;20044;-45
2023/10/01 00:45:25;;;;;;;2.75;1.33;;;;;;;15.66;100.00;100593.66;5011176;28;20061;-45
2023/10/01 00:47:53;;;;;;;3.47;1.77;;;;;;;15.63;100.00;100571.28;5011303;28;20165;-44
2023/10/01 00:50:21;;;;;;;3.25;1.50;;;;;;;15.63;100.00;100576.88;5009939;28;20038;-44
2023/10/01 00:52:51;;;;;;;1.63;0.80;;;;;;;15.63;100.00;100576.88;5011248;28;20053;-45
2023/10/01 00:55:20;;;;;;;4.43;2.00;;;;;;;15.63;100.00;100571.28;5010835;28;20412;-45
2023/10/01 00:57:49;;;;;;;2.72;1.33;;;;;;;15.62;100.00;100576.06;5011171;28;20148;-45
2023/10/01 01:00:19;;;;;;;4.65;1.23;;;;;;;15.63;100.00;100579.66;5010130;28;20408;-47
2023/10/01 01:03:00;;;;;;;5.18;2.22;;;;;;;15.62;100.00;100569.72;5010770;28;20109;-46
2023/10/01 01:08:22;;;;;;;3.55;1.10;;;;;;;15.62;100.00;100564.13;5009512;28;20046;-45
2023/10/01 01:10:53;;;;;;;1.50;1.10;;;;;;;15.61;100.00;100560.53;5010244;28;20158;-45
2023/10/01 01:13:23;;;;;;;4.30;1.17;;;;;;;15.60;100.00;100584.03;5010519;28;20128;-46
2023/10/01 01:15:51;;;;;;;4.45;1.50;;;;;;;15.61;100.00;100594.03;5010965;28;20046;-45
2023/10/01 01:18:26;;;;;;;2.67;1.42;;;;;;;15.62;100.00;100589.25;5012604;28;20053;-46
2023/10/01 01:21:05;;;;;;;2.60;1.20;;;;;;;15.61;100.00;100582.06;4982332;28;20091;-45
2023/10/01 01:23:32;;;;;;;2.58;1.13;;;;;;;15.61;100.00;100596.81;5008874;28;20045;-47
2023/10/01 01:25:59;;;;;;;2.25;0.88;;;;;;;15.63;100.00;100593.63;5008293;28;20084;-45
2023/10/01 01:28:30;;;;;;;3.00;1.20;;;;;;;15.65;100.00;100599.63;5010035;28;20050;-46
2023/10/01 01:31:03;;;;;;;4.60;1.25;;;;;;;15.64;100.00;100607.22;5009782;28;20503;-44
2023/10/01 01:33:32;;;;;;;2.30;1.40;;;;;;;15.63;100.00;100605.59;5010719;28;20038;-45
2023/10/01 01:36:03;;;;;;;5.85;1.92;;;;;;;15.65;100.00;100592.06;5009802;28;20041;-44
2023/10/01 01:38:32;;;;;;;4.78;1.50;;;;;;;15.63;100.00;100577.69;5009776;28;20247;-44
2023/10/01 01:41:00;;;;;;;5.95;1.48;;;;;;;15.62;100.00;100592.03;5008102;28;20056;-45
2023/10/01 01:43:31;;;;;;;3.55;1.27;;;;;;;15.60;100.00;100586.81;5009802;28;20076;-45
2023/10/01 01:46:11;;;;;;;2.65;1.23;;;;;;;15.58;100.00;100580.03;5007242;28;20107;-44
2023/10/01 01:48:40;;;;;;;2.90;1.00;;;;;;;15.56;100.00;100588.78;5010115;28;20132;-44
2023/10/01 01:51:08;;;;;;;3.92;1.50;;;;;;;15.54;100.00;100585.56;5009039;28;20038;-44
2023/10/01 01:53:36;;;;;;;4.13;1.50;;;;;;;15.53;100.00;100572.81;5009494;28;20400;-45
2023/10/01 01:56:08;;;;;;;2.47;1.30;;;;;;;15.51;100.00;100577.16;5009870;28;20041;-45
2023/10/01 01:58:37;;;;;;;3.20;1.25;;;;;;;15.51;100.00;100577.16;5008544;28;20045;-44
2023/10/01 02:03:46;;;;;;;2.17;1.00;;;;;;;15.49;100.00;100565.59;5009190;28;20046;-45
2023/10/01 02:06:15;;;;;;;3.28;1.40;;;;;;;15.48;100.00;100567.56;5008072;28;20054;-46
2023/10/01 02:08:57;;;;;;;1.77;1.15;;;;;;;15.48;100.00;100583.50;5008985;28;20037;-44
2023/10/01 02:11:26;;;;;;;3.65;1.70;;;;;;;15.47;100.00;100584.69;5009090;28;20068;-44
2023/10/01 02:13:57;;;;;;;2.22;1.25;;;;;;;15.47;100.00;100581.88;5003526;28;20456;-45
2023/10/01 02:21:52;;;;;;;4.13;1.65;;;;;;;15.48;100.00;100566.75;5007181;28;20053;-47
2023/10/01 02:24:23;;;;;;;2.92;1.40;;;;;;;15.49;100.00;100568.38;5008952;28;20064;-50
2023/10/01 02:27:03;;;;;;;4.78;1.30;;;;;;;15.49;100.00;100568.38;5009144;28;20821;-45
2023/10/01 02:29:32;;;;;;;3.03;1.27;;;;;;;15.47;100.00;100571.53;5008578;28;20042;-45
2023/10/01 02:32:04;;;;;;;3.92;1.17;;;;;;;15.48;100.00;100559.19;5006752;28;20042;-45
2023/10/01 02:34:32;;;;;;;;;;;;;;;15.45;100.00;100570.28;5009196;28;20049;-45
2023/10/01 02:37:03;;;;;;;2.45;1.92;;;;;;;15.46;100.00;100566.34;5009853;28;19975;-45
2023/10/01 02:39:30;;;;;;;2.83;1.15;;;;;;;15.46;100.00;100567.13;5007681;28;20074;-46
2023/10/01 02:42:32;;;;;;;3.38;1.60;;;;;;;15.45;100.00;100581.44;5008342;28;20049;-45
2023/10/01 02:44:53;;;;;;;3.03;1.50;;;;;;;15.44;100.00;100582.63;5007201;28;20054;-45
2023/10/01 02:47:23;;;;;;;3.58;1.30;;;;;;;15.42;100.00;100580.22;5008566;28;20050;-47
2023/10/01 02:49:53;;;;;;;5.38;1.02;;;;;;;15.41;100.00;100583.41;5009267;28;20046;-46
2023/10/01 02:52:36;;;;;;;3.88;1.40;;;;;;;15.41;100.00;100586.19;5009454;28;20145;-46
2023/10/01 02:55:17;;;;;;;3.58;1.20;;;;;;;15.40;100.00;100579.00;5009494;28;20050;-49
2023/10/01 02:57:45;;;;;;;5.82;1.48;;;;;;;15.39;100.00;100582.97;5008251;28;20169;-44
2023/10/01 03:02:41;;;;;;;1.95;1.20;;;;;;;15.35;100.00;100584.91;5045959;23;20050;-45
2023/10/01 03:05:26;;;;;;;1.90;1.00;;;;;;;15.33;100.00;100578.94;5006769;28;20090;-44
2023/10/01 03:07:53;;;;;;;4.07;1.38;;;;;;;15.32;100.00;100574.53;5005972;28;20442;-45
2023/10/01 03:10:27;;;;;;;2.65;1.30;;;;;;;15.30;100.00;100596.41;5008587;28;20089;-44
2023/10/01 03:12:56;;;;;;;4.75;1.52;;;;;;;15.29;100.00;100590.03;5008417;28;20054;-45
2023/10/01 03:15:29;;;;;;;4.28;2.00;;;;;;;15.27;100.00;100588.81;4988777;28;20057;-46
2023/10/01 03:18:06;;;;;;;2.83;1.77;;;;;;;15.24;100.00;100590.38;5007862;28;20042;-45
2023/10/01 03:26:05;;;;;;;7.13;1.05;;;;;;;15.17;100.00;100605.03;5007945;28;20116;-44
2023/10/01 03:31:19;;;;;;;3.38;1.20;;;;;;;15.12;100.00;100608.16;5005541;28;20116;-45
2023/10/01 03:33:47;;;;;;;5.07;1.35;;;;;;;15.13;100.00;100606.16;5008400;28;20037;-45
2023/10/01 03:36:24;;;;;;;3.63;1.17;;;;;;;15.11;100.00;100606.56;4986973;28;20046;-46
2023/10/01 03:39:25;;;;;;;3.10;1.13;;;;;;;15.12;100.00;100605.34;5007249;28;20084;-45
2023/10/01 03:42:10;;;;;;;2.20;0.90;;;;;;;15.10;100.00;100609.72;5006370;28;20062;-45
2023/10/01 03:47:24;;;;;;;3.63;1.33;;;;;;;15.02;100.00;100608.81;5006034;28;19936;-45
2023/10/01 03:49:55;;;;;;;3.88;1.77;;;;;;;15.01;100.00;100606.44;5007057;28;20042;-47
2023/10/01 03:52:22;;;;;;;3.88;1.98;;;;;;;15.00;100.00;100608.41;5011525;28;20049;-45
2023/10/01 03:55:32;;;;;;;1.92;1.10;;;;;;;14.99;100.00;100608.75;4994432;28;20100;-45
2023/10/01 03:57:53;;;;;;;4.55;1.42;;;;;;;14.97;100.00;100614.72;4995822;28;20065;-46
2023/10/01 04:00:34;;;;;;;4.53;1.50;;;;;;;14.98;100.00;100607.19;5011272;28;20050;-45
2023/10/01 04:03:01;;;;;;;4.53;1.15;;;;;;;14.98;100.00;100619.13;5009834;28;20054;-45
2023/10/01 04:05:31;;;;;;;3.25;1.30;;;;;;;14.99;100.00;100620.72;4981183;28;20536;-45
2023/10/01 04:08:10;;;;;;;2.30;1.27;;;;;;;15.01;100.00;100626.72;5011228;28;20050;-45
2023/10/01 04:10:38;;;;;;;4.30;1.73;;;;;;;15.01;100.00;100623.94;5009773;28;20115;-46
2023/10/01 04:13:20;;;;;;;3.70;1.83;;;;;;;15.02;100.00;100619.97;5009239;28;20054;-46
2023/10/01 04:16:07;;;;;;;3.45;1.40;;;;;;;15.03;100.00;100623.56;5007751;28;20038;-47
2023/10/01 04:18:41;;;;;;;3.38;1.42;;;;;;;15.02;100.00;100635.88;5008376;28;20511;-46
2023/10/01 04:23:41;;;;;;;2.65;1.42;;;;;;;15.01;100.00;100640.66;5011383;28;20049;-45
2023/10/01 04:26:13;;;;;;;3.22;1.20;;;;;;;15.01;100.00;100637.88;5008201;28;20060;-45
2023/10/01 04:28:45;;;;;;;5.72;1.75;;;;;;;15.03;100.00;100641.09;5009329;28;20132;-46
2023/10/01 04:31:19;;;;;;;3.30;1.20;;;;;;;15.04;100.00;100639.09;5010682;28;20115;-45
2023/10/01 04:33:49;;;;;;;6.03;2.20;;;;;;;15.05;100.00;100640.72;5012411;28;20046;-45
2023/10/01 04:36:17;;;;;;;1.85;1.30;;;;;;;15.05;100.00;100641.53;5011369;28;20554;-44
2023/10/01 04:38:45;;;;;;;4.40;1.70;;;;;;;15.05;100.00;100647.09;5011344;28;20146;-45
2023/10/01 04:41:15;;;;;;;2.67;1.50;;;;;;;15.05;100.00;100652.69;5011137;28;20037;-45
2023/10/01 04:43:52;;;;;;;2.55;1.20;;;;;;;15.05;100.00;100654.66;5009939;28;20061;-45
2023/10/01 04:46:29;;;;;;;5.10;1.50;;;;;;;15.03;100.00;100655.03;4989298;28;20419;-45
2023/10/01 04:48:57;;;;;;;3.40;1.60;;;;;;;15.01;100.00;100657.38;5006108;28;20091;-45
2023/10/01 04:51:44;;;;;;;4.50;1.75;;;;;;;15.01;100.00;100656.59;5010374;28;20104;-47
2023/10/01 04:54:21;;;;;;;3.00;1.30;;;;;;;15.01;100.00;100662.97;5008894;28;20046;-46
2023/10/01 04:56:49;;;;;;;4.90;1.85;;;;;;;15.00;100.00;100658.59;5010798;28;20049;-44
2023/10/01 04:59:18;;;;;;;8.50;3.20;;;;;;;14.99;100.00;100665.34;5011591;28;20060;-45
2023/10/01 05:01:47;;;;;;;5.28;1.95;;;;;;;15.00;100.00;100666.94;5002927;28;20145;-45
2023/10/01 05:04:14;;;;;;;5.85;1.90;;;;;;;15.02;100.00;100672.94;5007059;28;20065;-45
2023/10/01 05:06:43;;;;;;;7.75;2.00;;;;;;;15.04;100.00;100673.38;5007986;28;20065;-47
2023/10/01 05:09:14;;;;;;;7.32;2.08;;;;;;;15.07;100.00;100672.63;5007968;28;20042;-45
2023/10/01 05:11:43;;;;;;;4.72;1.92;;;;;;;15.09;100.00;100670.25;5009056;28;20590;-49
2023/10/01 05:14:12;;;;;;;3.45;1.63;;;;;;;15.13;100.00;100665.53;5009358;28;20046;-45
2023/10/01 05:16:39;;;;;;;6.25;1.90;;;;;;;15.17;100.00;100669.16;5006826;28;20052;-45
2023/10/01 05:19:15;;;;;;;4.30;1.95;;;;;;;15.20;100.00;100671.19;5007154;28;20396;-47
2023/10/01 05:21:48;;;;;;;4.10;1.67;;;;;;;15.23;100.00;100675.22;5008595;28;20815;-48
2023/10/01 05:24:31;;;;;;;7.22;2.22;;;;;;;15.24;100.00;100674.84;5008772;28;20817;-45
2023/10/01 05:27:00;;;;;;;5.50;2.08;;;;;;;15.25;100.00;100672.84;5010488;28;20049;-45
2023/10/01 05:29:28;;;;;;;5.32;2.35;;;;;;;15.27;100.00;100675.28;5009273;28;20046;-46
2023/10/01 05:31:56;;;;;;;9.43;2.60;;;;;;;15.29;100.00;100667.31;5009350;28;20416;-45
2023/10/01 05:34:25;;;;;;;10.95;3.03;;;;;;;15.29;100.00;100670.13;5001372;28;20061;-45
2023/10/01 05:36:52;;;;;;;3.83;1.85;;;;;;;15.30;100.00;100682.88;5007843;28;20077;-46
2023/10/01 05:39:23;;;;;;;5.25;2.38;;;;;;;15.28;100.00;100683.25;5008365;28;20053;-45
2023/10/01 05:41:51;;;;;;;6.18;2.25;;;;;;;15.27;100.00;100688.03;5009572;28;20037;-45
2023/10/01 05:44:21;;;;;;;6.55;2.72;;;;;;;15.25;100.00;100684.81;5006514;28;20049;-45
2023/10/01 05:46:49;;;;;;;4.38;2.08;;;;;;;15.23;100.00;100686.38;5004132;28;20092;-46
2023/10/01 05:49:17;;;;;;;7.78;2.40;;;;;;;15.20;100.00;100685.16;5009451;28;20053;-46
2023/10/01 05:51:45;;;;;;;7.25;2.45;;;;;;;15.17;100.00;100705.41;5008502;28;20065;-46
2023/10/01 05:54:18;;;;;;;6.40;2.50;;;;;;;15.14;100.00;100700.59;5007952;28;20459;-45
2023/10/01 05:56:48;;;;;;;6.32;2.88;;;;;;;15.12;100.00;100694.59;5007031;28;20492;-49
2023/10/01 05:59:20;;;;;;;5.95;2.63;;;;;;;15.10;100.00;100702.53;5010206;28;20041;-45
2023/10/01 06:01:48;;;;;;;12.93;3.47;;;;;;;15.05;100.00;100708.44;5008462;28;20100;-45
2023/10/01 06:04:17;;;;;;;5.70;2.30;;;;;;;15.04;100.00;100712.41;4986570;28;20487;-45
2023/10/01 06:06:46;;;;;;;9.88;2.78;;;;;;;15.04;100.00;100712.41;5006966;28;20053;-45
2023/10/01 06:09:16;;;;;;;7.60;2.42;;;;;;;15.02;100.00;100714.78;5007054;28;20393;-45
2023/10/01 06:11:48;;;;;;;9.32;3.45;;;;;;;15.01;100.00;100712.38;5007994;28;20042;-47
2023/10/01 06:17:04;;;;;;;5.43;2.17;;;;;;;15.02;100.00;100716.75;5005967;28;20141;-46
2023/10/01 06:19:32;;;;;;;5.68;2.45;;;;;;;15.01;100.00;100717.94;5005706;28;20129;-46
2023/10/01 06:24:49;;;;;;;5.78;2.33;;;;;;;15.03;100.00;100719.19;5009594;28;20488;-45
2023/10/01 06:27:19;;;;;;;10.10;2.65;;;;;;;15.05;100.00;100724.38;5007892;28;20497;-46
2023/10/01 06:29:49;;;;;;;8.00;2.75;;;;;;;15.05;100.00;100718.78;5007445;28;20093;-45
2023/10/01 06:32:22;;;;;;;6.15;2.42;;;;;;;15.06;100.00;100717.63;5005600;28;20499;-50
2023/10/01 06:34:53;;;;;;;4.00;2.22;;;;;;;15.06;100.00;100718.41;5008600;28;20049;-45
2023/10/01 06:37:20;;;;;;;6.00;2.43;;;;;;;15.05;100.00;100716.81;5007205;28;20045;-50
2023/10/01 06:39:47;;;;;;;6.93;2.83;;;;;;;15.02;100.00;100709.19;5008755;28;20527;-46
2023/10/01 06:42:20;;;;;;;7.40;2.28;;;;;;;14.99;100.00;100721.09;5008887;28;20460;-46
2023/10/01 06:44:55;;;;;;;7.15;3.15;;;;;;;14.95;100.00;100723.03;5009547;28;20096;-45
2023/10/01 06:47:23;;;;;;;5.10;1.85;;;;;;;14.93;100.00;100721.81;5005556;28;20042;-45
2023/10/01 06:49:57;;;;;;;11.02;2.50;;;;;;;14.89;100.00;100727.31;5006266;28;20050;-45
2023/10/01 06:52:29;;;;;;;6.57;2.50;;;;;;;14.87;100.00;100735.25;5007987;28;20064;-45
2023/10/01 06:54:57;;;;;;;9.95;4.22;;;;;;;14.84;100.00;100724.84;5007541;28;20054;-45
2023/10/01 06:57:28;;;;;;;14.05;3.22;;;;;;;14.83;100.00;100730.78;5007589;28;20050;-47
2023/10/01 06:59:56;;;;;;;7.10;2.78;;;;;;;14.81;100.00;100731.16;5004113;28;20038;-46
2023/10/01 07:02:25;;;;;;;10.85;2.85;;;;;;;14.81;100.00;100745.09;5003672;28;20633;-45
2023/10/01 07:04:58;;;;;;;7.95;2.75;;;;;;;14.81;100.00;100742.31;5008278;28;20509;-44
2023/10/01 07:07:40;;;;;;;12.95;3.33;;;;;;;14.81;100.00;100738.72;5002789;28;20594;-45
2023/10/01 07:10:11;;;;;;;8.02;3.50;;;;;;;14.82;100.00;100746.72;5004273;28;20077;-45
2023/10/01 07:12:53;;;;;;;5.85;2.83;;;;;;;14.83;100.00;100745.53;5001942;28;20038;-44
2023/10/01 07:15:21;;;;;;;10.73;3.05;;;;;;;14.85;100.00;100754.31;5001807;28;20050;-45
2023/10/01 07:17:47;;;;;;;4.93;2.80;;;;;;;14.86;100.00;100747.56;5004770;28;20402;-46
2023/10/01 07:20:24;;;;;;;8.10;3.10;;;;;;;14.88;100.00;100753.56;5005706;28;20054;-44
2023/10/01 07:22:52;;;;;;;6.55;2.85;;;;;;;14.92;100.00;100756.44;5001609;28;20572;-45
2023/10/01 07:25:37;;;;;;;5.40;2.60;;;;;;;14.94;100.00;100766.03;5009201;28;20050;-46
2023/10/01 07:28:06;;;;;;;;;;;;;;;14.95;100.00;100764.84;5013038;28;20049;-50
2023/10/01 07:30:45;;;;;;;8.15;3.22;;;;;;;14.98;100.00;100772.47;5011546;28;20346;-45
2023/10/01 07:33:20;;;;;;;7.15;3.30;;;;;;;15.03;100.00;100774.13;4995658;28;20053;-46
2023/10/01 07:36:01;;;;;;;10.63;4.50;;;;;;;15.04;100.00;100772.94;5010823;28;20093;-46
2023/10/01 07:38:32;;;;;;;8.05;2.60;;;;;;;15.05;100.00;100786.50;5013329;28;20085;-45
2023/10/01 07:41:07;;;;;;;9.80;3.60;;;;;;;15.07;100.00;100773.00;5011186;28;20571;-45
2023/10/01 07:43:35;;;;;;;6.13;3.03;;;;;;;15.09;100.00;100781.00;5010098;28;20121;-47
2023/10/01 07:46:02;;;;;;;7.93;3.17;;;;;;;15.11;100.00;100779.44;5012588;28;20061;-45
2023/10/01 07:48:31;;;;;;;9.60;3.90;;;;;;;15.14;100.00;100792.63;5011779;28;20140;-46
2023/10/01 07:51:02;;;;;;;8.85;3.08;;;;;;;15.17;100.00;100789.09;5009765;28;20095;-52
2023/10/01 07:53:33;;;;;;;8.65;3.15;;;;;;;15.19;100.00;100791.50;5008148;28;20502;-46
2023/10/01 07:56:02;;;;;;;5.55;3.10;;;;;;;15.21;100.00;100794.72;5005185;28;20108;-47
2023/10/01 07:58:48;;;;;;;7.30;4.22;;;;;;;15.24;100.00;100794.78;5006044;28;20046;-46
2023/10/01 08:04:08;;;;;;;9.32;3.40;;;;;;;15.32;100.00;100811.63;4992042;28;20042;-45
2023/10/01 08:06:56;;;;;;;10.10;3.15;;;;;;;15.36;100.00;100813.28;4990272;28;20129;-44
2023/10/01 08:09:23;;;;;;;10.43;4.10;;;;;;;15.40;100.00;100822.53;4992056;28;20050;-45
2023/10/01 08:12:05;;;;;;;14.52;4.20;;;;;;;15.46;100.00;100820.25;4991602;28;20432;-45
2023/10/01 08:14:33;;;;;;;11.98;3.28;;;;;;;15.54;100.00;100824.75;4991867;28;20507;-50
2023/10/01 08:17:05;;;;;;;16.20;4.43;;;;;;;15.62;100.00;100826.47;4992342;28;20035;-45
2023/10/01 08:19:45;;;;;;;14.43;5.43;;;;;;;15.70;100.00;100830.97;4990694;28;20050;-46
2023/10/01 08:22:14;;;;;;;11.75;5.07;;;;;;;15.76;100.00;100827.44;4989956;28;20046;-47
2023/10/01 08:24:45;;;;;;;10.38;3.60;;;;;;;15.81;100.00;100826.31;4991995;28;20069;-45
2023/10/01 08:27:14;;;;;;;8.65;3.38;;;;;;;15.83;100.00;100826.75;4991567;28;20621;-45
2023/10/01 08:32:41;;;;;;;10.23;3.30;;;;;;;15.85;100.00;100832.75;4976230;28;20050;-44
2023/10/01 08:35:08;;;;;;;11.83;3.53;;;;;;;15.87;100.00;100833.19;4989557;28;20047;-47
2023/10/01 08:37:38;;;;;;;9.02;3.38;;;;;;;15.90;100.00;100837.19;4988115;28;20046;-45
2023/10/01 08:40:14;;;;;;;17.02;4.30;;;;;;;15.94;100.00;100838.06;4974812;28;20049;-45
2023/10/01 08:42:44;;;;;;;8.05;4.03;;;;;;;15.99;100.00;100846.88;4989141;28;20057;-45
2023/10/01 08:45:17;;;;;;;12.35;4.10;;;;;;;16.07;100.00;100837.41;4987834;28;20104;-46
2023/10/01 08:47:50;;;;;;;7.40;3.60;;;;;;;16.16;100.00;100843.53;4986564;28;20042;-47
2023/10/01 08:52:56;;;;;;;13.82;5.28;;;;;;;16.39;100.00;100844.19;4984724;28;20090;-46
2023/10/01 08:55:24;;;;;;;9.40;3.42;;;;;;;16.51;100.00;100845.13;4981434;28;20046;-46
2023/10/01 08:57:55;;;;;;;10.88;4.13;;;;;;;16.52;100.00;100853.13;4989926;28;20046;-45
2023/10/01 09:00:24;;;;;;;10.55;3.60;;;;;;;16.56;100.00;100850.41;4987130;28;20034;-45
2023/10/01 09:02:55;;;;;;;13.30;4.25;;;;;;;16.60;100.00;100842.88;4989761;28;20097;-46
2023/10/01 09:05:23;;;;;;;9.63;4.00;;;;;;;16.73;100.00;100853.38;4987735;28;20066;-46
2023/10/01 09:08:15;;;;;;;9.27;4.70;;;;;;;16.85;100.00;100855.09;4989160;28;20434;-46
2023/10/01 09:10:50;;;;;;;14.07;4.80;;;;;;;17.00;100.00;100862.41;4990630;28;20038;-46
2023/10/01 09:13:21;;;;;;;15.63;4.68;;;;;;;17.10;100.00;100861.72;4990108;28;20512;-45
2023/10/01 09:15:56;;;;;;;13.88;5.10;;;;;;;17.19;100.00;100865.00;4969948;28;20061;-47
2023/10/01 09:18:26;;;;;;;14.18;6.63;;;;;;;17.31;100.00;100873.09;4989637;28;20543;-49
2023/10/01 09:21:20;;;;;;;14.48;4.97;;;;;;;17.45;100.00;100869.59;4988717;28;20046;-45
2023/10/01 09:24:11;;;;;;;13.43;4.38;;;;;;;17.56;100.00;100878.91;4987436;28;20046;-44
2023/10/01 09:26:56;;;;;;;14.90;6.90;;;;;;;17.67;100.00;100867.78;4985689;28;20133;-47
2023/10/01 09:29:24;;;;;;;14.30;5.25;;;;;;;17.69;100.00;100870.97;4986308;28;20492;-45
2023/10/01 09:31:52;;;;;;;15.38;4.75;;;;;;;17.62;100.00;100869.75;4987816;28;20100;-49
2023/10/01 09:34:36;;;;;;;19.58;4.80;;;;;;;17.54;100.00;100868.09;4987402;28;20046;-46
2023/10/01 09:40:04;;;;;;;11.82;4.30;;;;;;;17.27;99.81;100875.06;4988349;28;20053;-43
2023/10/01 09:42:44;;;;;;;14.05;5.25;;;;;;;17.29;100.00;100875.47;4987148;28;20055;-45
2023/10/01 09:45:26;;;;;;;13.50;5.50;;;;;;;17.39;100.00;100877.56;4986347;28;20046;-46
2023/10/01 09:48:04;;;;;;;12.60;4.60;;;;;;;17.50;99.95;100881.22;4988364;28;20557;-47
2023/10/01 09:50:42;;;;;;;10.05;3.80;;;;;;;17.58;99.55;100874.50;4985270;28;20070;-45
2023/10/01 09:53:12;;;;;;;10.73;3.47;;;;;;;17.73;99.32;100880.22;4986341;28;20098;-45
2023/10/01 09:55:55;;;;;;;15.73;4.40;;;;;;;17.79;97.99;100878.66;4984311;28;20067;-42
2023/10/01 09:58:28;;;;;;;12.77;4.65;;;;;;;17.82;97.86;100880.69;4982862;28;20046;-45
2023/10/01 10:01:00;;;;;;;10.55;4.38;;;;;;;17.92;98.19;100888.34;4974559;28;20109;-44
2023/10/01 10:03:37;;;;;;;11.10;3.67;;;;;;;18.06;98.18;100888.41;4966948;28;20404;-43
2023/10/01 10:06:08;;;;;;;15.85;4.38;;;;;;;18.19;97.22;100896.09;4982816;28;20124;-41
2023/10/01 10:08:37;;;;;;;12.97;3.47;;;;;;;18.20;95.36;100896.91;4985493;28;20104;-41
2023/10/01 10:11:13;;;;;;;14.90;3.92;;;;;;;18.22;95.33;100900.09;4984115;28;20030;-43
2023/10/01 10:13:49;;;;;;;14.80;5.03;;;;;;;18.55;93.99;100897.09;4984443;28;20090;-44
2023/10/01 10:16:32;;;;;;;12.85;5.28;;;;;;;18.69;91.37;100896.31;4976743;28;20074;-45
2023/10/01 10:19:13;;;;;;;11.10;3.85;;;;;;;18.51;90.50;100907.47;4983444;28;20056;-46
2023/10/01 10:24:37;;;;;;;11.32;3.42;;;;;;;18.06;89.92;100908.81;4985553;28;20393;-44
2023/10/01 10:27:08;;;;;;;13.70;4.32;;;;;;;17.94;89.14;100905.56;4986767;28;20504;-47
2023/10/01 10:29:57;;;;;;;9.35;3.80;;;;;;;18.46;89.73;100910.63;4979288;28;20058;-44
2023/10/01 10:32:29;;;;;;;11.20;3.75;;;;;;;19.42;83.42;100912.50;4984019;28;20044;-45
2023/10/01 10:35:05;;;;;;;;;;;;;;;19.34;83.42;100924.09;4987923;28;20939;-46
2023/10/01 10:43:07;;;;;;;12.52;4.22;;;;;;;21.61;74.39;100919.19;4986632;28;20046;-53
2023/10/01 10:45:45;;;;;;;11.90;3.88;;;;;;;22.16;70.65;100922.69;4986086;28;20085;-45
2023/10/01 10:48:16;;;;;;;13.02;4.45;;;;;;;22.51;69.10;100918.66;4987597;28;20062;-45
2023/10/01 10:50:53;;;;;;;11.07;4.25;;;;;;;22.07;69.52;100915.97;4986131;28;20053;-45
2023/10/01 10:53:42;;;;;;;13.27;3.97;;;;;;;21.07;71.64;100921.66;4987674;28;20046;-46
2023/10/01 10:56:13;;;;;;;12.35;4.45;;;;;;;20.37;73.34;100922.78;4987088;28;20459;-44
2023/10/01 10:58:44;;;;;;;15.03;3.90;;;;;;;19.81;75.54;100928.50;4987455;28;20042;-45
2023/10/01 11:01:22;;;;;;;14.55;5.05;;;;;;;19.44;75.98;100914.88;4986505;28;20590;-44
2023/10/01 11:03:57;;;;;;;17.50;4.35;;;;;;;19.02;76.85;100923.22;4970115;28;20053;-44
2023/10/01 11:07:01;;;;;;;10.38;3.72;;;;;;;18.80;77.99;100916.75;4989778;28;20444;-47
2023/10/01 11:09:31;;;;;;;10.38;5.22;;;;;;;18.85;78.04;100914.38;4989945;28;20054;-45
2023/10/01 11:12:18;;;;;;;10.02;4.60;;;;;;;18.87;78.47;100913.19;4990914;28;20485;-45
2023/10/01 11:14:56;;;;;;;13.77;4.18;;;;;;;18.82;78.21;100920.78;4991145;28;20054;-44
2023/10/01 11:17:24;;;;;;;14.20;3.95;;;;;;;18.82;78.29;100912.38;4992304;28;20423;-44
2023/10/01 11:19:58;;;;;;;8.10;3.97;;;;;;;18.83;78.40;100918.78;4991352;28;20507;-46
2023/10/01 11:22:25;;;;;;;14.85;4.25;;;;;;;18.85;78.51;100917.19;4991709;28;20399;-45
2023/10/01 11:24:53;;;;;;;14.07;3.65;;;;;;;18.90;78.72;100929.22;4993031;28;20065;-46
2023/10/01 11:27:25;;;;;;;10.77;4.15;;;;;;;18.85;78.19;100934.03;4992317;28;20046;-45
2023/10/01 11:30:13;;;;;;;13.68;4.18;;;;;;;18.79;78.20;100923.59;4991706;28;20508;-44
2023/10/01 11:35:40;;;;;;;12.32;3.75;;;;;;;18.71;78.45;100934.00;4992140;28;20523;-46
2023/10/01 11:38:13;;;;;;;12.82;4.38;;;;;;;18.64;78.62;100921.91;4992156;28;20386;-44
2023/10/01 11:44:00;;;;;;;12.27;3.97;;;;;;;18.48;78.18;100925.06;4973181;28;20054;-44
2023/10/01 11:49:32;;;;;;;17.85;4.65;;;;;;;18.38;77.79;100919.38;4987362;28;20050;-47
2023/10/01 11:52:16;;;;;;;12.50;3.22;;;;;;;18.35;77.81;100929.38;4989478;28;20047;-44
2023/10/01 11:54:53;;;;;;;5.95;3.05;;;;;;;18.30;77.06;100928.97;4988355;28;20058;-42
2023/10/01 11:57:22;;;;;;;11.70;4.03;;;;;;;18.26;76.81;100923.34;4990160;28;20039;-48
2023/10/01 12:00:01;;;;;;;14.35;4.07;;;;;;;18.20;76.67;100936.94;4990140;28;20049;-44
2023/10/01 12:02:33;;;;;;;12.60;3.65;;;;;;;18.18;77.52;100930.13;4986415;28;20046;-44
2023/10/01 12:05:03;;;;;;;8.85;3.63;;;;;;;18.19;76.88;100940.13;4988348;28;20057;-45
2023/10/01 12:07:39;;;;;;;10.63;4.13;;;;;;;18.22;77.18;100933.72;4987287;28;20123;-47
2023/10/01 12:10:24;;;;;;;10.35;2.75;;;;;;;18.30;77.06;100929.78;4988329;28;20101;-45
2023/10/01 12:12:51;;;;;;;11.98;3.30;;;;;;;18.43;77.51;100944.25;4974985;28;20050;-45
2023/10/01 12:18:08;;;;;;;8.18;3.38;;;;;;;18.54;77.35;100951.53;4988215;28;20053;-47
2023/10/01 12:20:39;;;;;;;;;;;;;;;18.61;78.08;100951.56;4986694;28;20062;-47
2023/10/01 12:23:13;;;;;;;15.25;3.00;;;;;;;18.72;77.29;100946.00;4988487;28;19937;-45
2023/10/01 12:25:51;;;;;;;11.65;2.88;;;;;;;18.74;76.85;100944.41;4989313;28;20054;-43
2023/10/01 12:28:23;;;;;;;14.20;4.43;;;;;;;18.84;77.19;100943.66;4988008;28;20077;-43
2023/10/01 12:30:57;;;;;;;9.63;2.92;;;;;;;18.97;76.48;100940.47;4987929;28;20042;-43
2023/10/01 12:33:39;;;;;;;11.88;3.38;;;;;;;18.98;76.11;100936.47;4987823;28;20050;-43
2023/10/01 12:44:25;;;;;;;10.15;3.30;;;;;;;19.30;74.45;100931.72;4986825;28;20101;-44
2023/10/01 12:46:54;;;;;;;9.85;3.08;;;;;;;19.40;74.29;100931.75;4986472;28;20050;-45
2023/10/01 12:49:21;;;;;;;15.82;3.30;;;;;;;19.49;73.83;100933.31;4972082;28;20519;-44
2023/10/01 12:51:48;;;;;;;12.85;3.58;;;;;;;19.56;73.81;100938.97;4989203;28;20058;-47
2023/10/01 12:54:25;;;;;;;9.13;3.85;;;;;;;19.61;73.21;100936.56;4988789;28;20492;-44